Terminal Aerodrome Forecast
Issued by NWS St Louis, MO

Home | Current Version | Previous Version | Text Only | Print | Product List | Glossary On
Versions: 1 2 3 4 5 6 7 8 9 10 11 12 13 14 15 16 17 18 19 20 21 22 23 24 25 26 27 28 29 30 31
000
FTUS43 KLSX 141120
TAFSTL
TAF
KSTL 141120Z 1412/1518 00000KT 3SM -RA BR OVC006
     FM141400 VRB03KT P6SM OVC008
     FM150200 02005KT P6SM OVC012
     FM150900 04004KT 3SM -FZRA BR OVC010
     FM151400 04006KT 5SM -RA OVC015=

USA.gov is the U.S. government's official web portal to all federal, state and local government web resources and services.